sensor_id;sensor_type;location;lat;lon;timestamp;temperature;humidity
25438;DHT22;13364;49.084;9.978;2023-06-22T00:01:20;20.80;82.50
25438;DHT22;13364;49.084;9.978;2023-06-22T00:03:48;20.80;82.80
25438;DHT22;13364;49.084;9.978;2023-06-22T00:06:15;20.80;83.10
25438;DHT22;13364;49.084;9.978;2023-06-22T00:08:42;20.80;83.00
25438;DHT22;13364;49.084;9.978;2023-06-22T00:11:09;20.70;83.00
25438;DHT22;13364;49.084;9.978;2023-06-22T00:13:38;20.70;83.00
25438;DHT22;13364;49.084;9.978;2023-06-22T00:16:10;20.70;82.90
25438;DHT22;13364;49.084;9.978;2023-06-22T00:18:37;20.70;83.60
25438;DHT22;13364;49.084;9.978;2023-06-22T00:21:04;20.50;84.20
25438;DHT22;13364;49.084;9.978;2023-06-22T00:23:33;20.50;84.40
25438;DHT22;13364;49.084;9.978;2023-06-22T00:26:01;20.40;84.60
25438;DHT22;13364;49.084;9.978;2023-06-22T00:28:28;20.40;84.50
25438;DHT22;13364;49.084;9.978;2023-06-22T00:30:56;20.40;84.30
25438;DHT22;13364;49.084;9.978;2023-06-22T00:33:24;20.30;84.00
25438;DHT22;13364;49.084;9.978;2023-06-22T00:35:52;20.30;83.90
25438;DHT22;13364;49.084;9.978;2023-06-22T00:38:20;20.30;83.80
25438;DHT22;13364;49.084;9.978;2023-06-22T00:40:47;20.30;83.40
25438;DHT22;13364;49.084;9.978;2023-06-22T00:43:14;20.30;83.30
25438;DHT22;13364;49.084;9.978;2023-06-22T00:45:41;20.30;82.80
25438;DHT22;13364;49.084;9.978;2023-06-22T00:48:09;20.30;83.30
25438;DHT22;13364;49.084;9.978;2023-06-22T00:50:36;20.30;83.60
25438;DHT22;13364;49.084;9.978;2023-06-22T00:53:08;20.30;83.50
25438;DHT22;13364;49.084;9.978;2023-06-22T00:55:41;20.30;83.60
25438;DHT22;13364;49.084;9.978;2023-06-22T00:58:11;20.30;84.00
25438;DHT22;13364;49.084;9.978;2023-06-22T01:00:40;20.30;83.80
25438;DHT22;13364;49.084;9.978;2023-06-22T01:03:08;20.20;84.50
25438;DHT22;13364;49.084;9.978;2023-06-22T01:05:37;20.20;84.60
25438;DHT22;13364;49.084;9.978;2023-06-22T01:08:46;20.20;84.80
25438;DHT22;13364;49.084;9.978;2023-06-22T01:11:20;20.10;85.20
25438;DHT22;13364;49.084;9.978;2023-06-22T01:14:03;20.10;85.10
25438;DHT22;13364;49.084;9.978;2023-06-22T01:16:35;20.00;85.10
25438;DHT22;13364;49.084;9.978;2023-06-22T01:21:53;20.00;86.00
25438;DHT22;13364;49.084;9.978;2023-06-22T01:24:26;20.00;86.10
25438;DHT22;13364;49.084;9.978;2023-06-22T01:30:16;20.00;86.20
25438;DHT22;13364;49.084;9.978;2023-06-22T01:32:46;19.90;86.20
25438;DHT22;13364;49.084;9.978;2023-06-22T01:35:15;19.90;86.20
25438;DHT22;13364;49.084;9.978;2023-06-22T01:37:43;19.90;86.30
25438;DHT22;13364;49.084;9.978;2023-06-22T01:40:11;19.90;86.40
25438;DHT22;13364;49.084;9.978;2023-06-22T01:42:39;19.90;86.20
25438;DHT22;13364;49.084;9.978;2023-06-22T01:45:07;19.90;86.20
25438;DHT22;13364;49.084;9.978;2023-06-22T01:47:37;19.90;86.30
25438;DHT22;13364;49.084;9.978;2023-06-22T01:50:05;19.90;87.00
25438;DHT22;13364;49.084;9.978;2023-06-22T01:52:32;19.70;88.10
25438;DHT22;13364;49.084;9.978;2023-06-22T01:55:01;19.60;89.10
25438;DHT22;13364;49.084;9.978;2023-06-22T01:57:28;19.50;89.50
25438;DHT22;13364;49.084;9.978;2023-06-22T02:00:04;19.50;89.30
25438;DHT22;13364;49.084;9.978;2023-06-22T02:03:21;19.50;89.30
25438;DHT22;13364;49.084;9.978;2023-06-22T02:05:56;19.40;90.00
25438;DHT22;13364;49.084;9.978;2023-06-22T02:08:29;19.20;90.70
25438;DHT22;13364;49.084;9.978;2023-06-22T02:10:59;19.00;91.30
25438;DHT22;13364;49.084;9.978;2023-06-22T02:13:27;18.90;91.80
25438;DHT22;13364;49.084;9.978;2023-06-22T02:15:54;18.70;92.10
25438;DHT22;13364;49.084;9.978;2023-06-22T02:18:22;18.60;92.50
25438;DHT22;13364;49.084;9.978;2023-06-22T02:20:49;18.60;93.00
25438;DHT22;13364;49.084;9.978;2023-06-22T02:23:16;18.50;93.80
25438;DHT22;13364;49.084;9.978;2023-06-22T02:25:43;18.40;94.10
25438;DHT22;13364;49.084;9.978;2023-06-22T02:28:11;18.30;94.90
25438;DHT22;13364;49.084;9.978;2023-06-22T02:30:38;18.30;95.00
25438;DHT22;13364;49.084;9.978;2023-06-22T02:33:06;18.20;95.30
25438;DHT22;13364;49.084;9.978;2023-06-22T02:35:33;18.20;94.90
25438;DHT22;13364;49.084;9.978;2023-06-22T02:38:03;18.20;94.90
25438;DHT22;13364;49.084;9.978;2023-06-22T02:40:31;18.20;95.20
25438;DHT22;13364;49.084;9.978;2023-06-22T02:42:58;18.10;95.20
25438;DHT22;13364;49.084;9.978;2023-06-22T02:45:29;18.10;95.60
25438;DHT22;13364;49.084;9.978;2023-06-22T02:47:56;18.00;95.80
25438;DHT22;13364;49.084;9.978;2023-06-22T02:50:24;18.00;96.10
25438;DHT22;13364;49.084;9.978;2023-06-22T02:52:52;17.90;96.30
25438;DHT22;13364;49.084;9.978;2023-06-22T02:55:20;17.80;96.30
25438;DHT22;13364;49.084;9.978;2023-06-22T02:57:53;17.90;96.20
25438;DHT22;13364;49.084;9.978;2023-06-22T03:00:21;17.80;96.50
25438;DHT22;13364;49.084;9.978;2023-06-22T03:02:49;17.70;96.60
25438;DHT22;13364;49.084;9.978;2023-06-22T03:05:17;17.70;96.70
25438;DHT22;13364;49.084;9.978;2023-06-22T03:07:47;17.60;96.90
25438;DHT22;13364;49.084;9.978;2023-06-22T03:10:15;17.50;97.20
25438;DHT22;13364;49.084;9.978;2023-06-22T03:12:43;17.40;97.80
25438;DHT22;13364;49.084;9.978;2023-06-22T03:15:12;17.40;98.00
25438;DHT22;13364;49.084;9.978;2023-06-22T03:17:40;17.30;98.20
25438;DHT22;13364;49.084;9.978;2023-06-22T03:20:09;17.30;98.50
25438;DHT22;13364;49.084;9.978;2023-06-22T03:22:39;17.30;99.00
25438;DHT22;13364;49.084;9.978;2023-06-22T03:25:07;17.20;99.30
25438;DHT22;13364;49.084;9.978;2023-06-22T03:27:42;17.20;99.50
25438;DHT22;13364;49.084;9.978;2023-06-22T03:30:11;17.20;99.80
25438;DHT22;13364;49.084;9.978;2023-06-22T03:32:39;17.20;99.70
25438;DHT22;13364;49.084;9.978;2023-06-22T03:35:06;17.30;99.30
25438;DHT22;13364;49.084;9.978;2023-06-22T03:37:36;17.30;99.40
25438;DHT22;13364;49.084;9.978;2023-06-22T03:40:03;17.40;99.60
25438;DHT22;13364;49.084;9.978;2023-06-22T03:42:34;17.40;99.50
25438;DHT22;13364;49.084;9.978;2023-06-22T03:45:05;17.50;99.10
25438;DHT22;13364;49.084;9.978;2023-06-22T03:47:32;17.60;98.80
25438;DHT22;13364;49.084;9.978;2023-06-22T03:50:00;17.70;98.50
25438;DHT22;13364;49.084;9.978;2023-06-22T03:52:27;17.70;98.60
25438;DHT22;13364;49.084;9.978;2023-06-22T03:54:54;17.80;98.10
25438;DHT22;13364;49.084;9.978;2023-06-22T03:57:21;17.80;97.90
25438;DHT22;13364;49.084;9.978;2023-06-22T03:59:48;17.80;97.80
25438;DHT22;13364;49.084;9.978;2023-06-22T04:02:15;17.80;98.00
25438;DHT22;13364;49.084;9.978;2023-06-22T04:04:42;18.00;97.30
25438;DHT22;13364;49.084;9.978;2023-06-22T04:07:10;18.10;97.00
25438;DHT22;13364;49.084;9.978;2023-06-22T04:09:37;18.20;96.60
25438;DHT22;13364;49.084;9.978;2023-06-22T04:12:04;18.20;96.50
25438;DHT22;13364;49.084;9.978;2023-06-22T04:14:31;18.20;96.80
25438;DHT22;13364;49.084;9.978;2023-06-22T04:16:59;18.20;96.70
25438;DHT22;13364;49.084;9.978;2023-06-22T04:19:26;18.30;96.50
25438;DHT22;13364;49.084;9.978;2023-06-22T04:21:53;18.40;96.20
25438;DHT22;13364;49.084;9.978;2023-06-22T04:24:20;18.50;95.70
25438;DHT22;13364;49.084;9.978;2023-06-22T04:26:47;18.60;94.90
25438;DHT22;13364;49.084;9.978;2023-06-22T04:29:14;18.70;94.80
25438;DHT22;13364;49.084;9.978;2023-06-22T04:31:41;18.70;94.50
25438;DHT22;13364;49.084;9.978;2023-06-22T04:34:09;18.80;93.90
25438;DHT22;13364;49.084;9.978;2023-06-22T04:36:40;18.90;93.80
25438;DHT22;13364;49.084;9.978;2023-06-22T04:39:10;19.00;93.40
25438;DHT22;13364;49.084;9.978;2023-06-22T04:41:38;19.00;93.20
25438;DHT22;13364;49.084;9.978;2023-06-22T04:44:11;19.10;93.20
25438;DHT22;13364;49.084;9.978;2023-06-22T04:46:40;19.20;92.40
25438;DHT22;13364;49.084;9.978;2023-06-22T04:49:10;19.20;92.90
25438;DHT22;13364;49.084;9.978;2023-06-22T04:51:42;19.20;92.80
25438;DHT22;13364;49.084;9.978;2023-06-22T04:54:09;19.30;92.90
25438;DHT22;13364;49.084;9.978;2023-06-22T04:57:07;19.30;92.60
25438;DHT22;13364;49.084;9.978;2023-06-22T04:59:37;19.40;92.60
25438;DHT22;13364;49.084;9.978;2023-06-22T05:02:06;19.50;92.60
25438;DHT22;13364;49.084;9.978;2023-06-22T05:04:33;19.50;92.50
25438;DHT22;13364;49.084;9.978;2023-06-22T05:07:02;19.50;91.70
25438;DHT22;13364;49.084;9.978;2023-06-22T05:09:30;19.50;92.30
25438;DHT22;13364;49.084;9.978;2023-06-22T05:11:57;19.50;92.50
25438;DHT22;13364;49.084;9.978;2023-06-22T05:14:26;19.60;92.30
25438;DHT22;13364;49.084;9.978;2023-06-22T05:16:53;19.70;92.60
25438;DHT22;13364;49.084;9.978;2023-06-22T05:19:20;19.70;92.60
25438;DHT22;13364;49.084;9.978;2023-06-22T05:21:47;19.80;92.00
25438;DHT22;13364;49.084;9.978;2023-06-22T05:24:14;19.90;91.70
25438;DHT22;13364;49.084;9.978;2023-06-22T05:26:42;19.90;90.60
25438;DHT22;13364;49.084;9.978;2023-06-22T05:29:09;19.90;90.30
25438;DHT22;13364;49.084;9.978;2023-06-22T05:31:36;20.00;90.40
25438;DHT22;13364;49.084;9.978;2023-06-22T05:34:03;20.00;91.20
25438;DHT22;13364;49.084;9.978;2023-06-22T05:36:30;20.10;90.80
25438;DHT22;13364;49.084;9.978;2023-06-22T05:38:57;20.20;90.70
25438;DHT22;13364;49.084;9.978;2023-06-22T05:41:25;20.20;90.40
25438;DHT22;13364;49.084;9.978;2023-06-22T05:43:52;20.20;89.90
25438;DHT22;13364;49.084;9.978;2023-06-22T05:46:19;20.30;90.40
25438;DHT22;13364;49.084;9.978;2023-06-22T05:48:46;20.30;89.90
25438;DHT22;13364;49.084;9.978;2023-06-22T05:51:13;20.40;89.70
25438;DHT22;13364;49.084;9.978;2023-06-22T05:53:41;20.50;90.00
25438;DHT22;13364;49.084;9.978;2023-06-22T05:56:08;20.60;89.60
25438;DHT22;13364;49.084;9.978;2023-06-22T05:58:35;20.60;89.40
25438;DHT22;13364;49.084;9.978;2023-06-22T06:01:02;20.70;89.80
25438;DHT22;13364;49.084;9.978;2023-06-22T06:03:29;20.80;88.80
25438;DHT22;13364;49.084;9.978;2023-06-22T06:05:59;20.90;89.00
25438;DHT22;13364;49.084;9.978;2023-06-22T06:08:29;21.00;89.40
25438;DHT22;13364;49.084;9.978;2023-06-22T06:10:56;21.10;88.70
25438;DHT22;13364;49.084;9.978;2023-06-22T06:13:24;21.20;87.80
25438;DHT22;13364;49.084;9.978;2023-06-22T06:15:51;21.20;86.90
25438;DHT22;13364;49.084;9.978;2023-06-22T06:18:21;21.30;86.70
25438;DHT22;13364;49.084;9.978;2023-06-22T06:20:49;21.40;86.70
25438;DHT22;13364;49.084;9.978;2023-06-22T06:23:16;21.40;86.10
25438;DHT22;13364;49.084;9.978;2023-06-22T06:25:43;21.50;86.00
25438;DHT22;13364;49.084;9.978;2023-06-22T06:28:10;21.50;86.10
25438;DHT22;13364;49.084;9.978;2023-06-22T06:30:38;21.60;85.90
25438;DHT22;13364;49.084;9.978;2023-06-22T06:33:05;21.70;85.30
25438;DHT22;13364;49.084;9.978;2023-06-22T06:35:35;21.80;85.40
25438;DHT22;13364;49.084;9.978;2023-06-22T06:38:04;21.90;84.50
25438;DHT22;13364;49.084;9.978;2023-06-22T06:40:31;22.00;84.40
25438;DHT22;13364;49.084;9.978;2023-06-22T06:42:59;22.00;83.70
25438;DHT22;13364;49.084;9.978;2023-06-22T06:45:27;22.00;83.40
25438;DHT22;13364;49.084;9.978;2023-06-22T06:47:55;22.10;83.20
25438;DHT22;13364;49.084;9.978;2023-06-22T06:50:22;22.20;84.00
25438;DHT22;13364;49.084;9.978;2023-06-22T06:52:49;22.30;82.80
25438;DHT22;13364;49.084;9.978;2023-06-22T06:55:19;22.40;82.20
25438;DHT22;13364;49.084;9.978;2023-06-22T06:57:47;22.50;81.50
25438;DHT22;13364;49.084;9.978;2023-06-22T07:00:15;22.50;81.40
25438;DHT22;13364;49.084;9.978;2023-06-22T07:02:44;22.60;81.70
25438;DHT22;13364;49.084;9.978;2023-06-22T07:05:12;22.70;81.30
25438;DHT22;13364;49.084;9.978;2023-06-22T07:07:40;22.80;80.80
25438;DHT22;13364;49.084;9.978;2023-06-22T07:10:08;22.90;80.00
25438;DHT22;13364;49.084;9.978;2023-06-22T07:12:36;23.00;80.60
25438;DHT22;13364;49.084;9.978;2023-06-22T07:15:04;23.10;79.90
25438;DHT22;13364;49.084;9.978;2023-06-22T07:17:32;23.30;79.00
25438;DHT22;13364;49.084;9.978;2023-06-22T07:20:00;23.40;78.60
25438;DHT22;13364;49.084;9.978;2023-06-22T07:22:27;23.50;77.30
25438;DHT22;13364;49.084;9.978;2023-06-22T07:24:54;23.60;77.60
25438;DHT22;13364;49.084;9.978;2023-06-22T07:27:21;23.70;77.80
25438;DHT22;13364;49.084;9.978;2023-06-22T07:29:48;23.80;76.10
25438;DHT22;13364;49.084;9.978;2023-06-22T07:32:16;23.90;76.40
25438;DHT22;13364;49.084;9.978;2023-06-22T07:34:43;24.00;76.20
25438;DHT22;13364;49.084;9.978;2023-06-22T07:37:10;24.00;75.30
25438;DHT22;13364;49.084;9.978;2023-06-22T07:39:37;24.10;74.20
25438;DHT22;13364;49.084;9.978;2023-06-22T07:42:05;24.20;73.10
25438;DHT22;13364;49.084;9.978;2023-06-22T07:44:32;24.30;73.20
25438;DHT22;13364;49.084;9.978;2023-06-22T07:46:59;24.40;73.10
25438;DHT22;13364;49.084;9.978;2023-06-22T07:49:27;24.50;72.50
25438;DHT22;13364;49.084;9.978;2023-06-22T07:51:55;24.70;71.90
25438;DHT22;13364;49.084;9.978;2023-06-22T07:54:22;24.90;72.10
25438;DHT22;13364;49.084;9.978;2023-06-22T07:56:49;25.00;71.40
25438;DHT22;13364;49.084;9.978;2023-06-22T07:59:16;25.20;70.50
25438;DHT22;13364;49.084;9.978;2023-06-22T08:01:43;25.30;69.50
25438;DHT22;13364;49.084;9.978;2023-06-22T08:04:11;25.40;68.90
25438;DHT22;13364;49.084;9.978;2023-06-22T08:06:38;25.60;69.20
25438;DHT22;13364;49.084;9.978;2023-06-22T08:09:05;25.70;68.20
25438;DHT22;13364;49.084;9.978;2023-06-22T08:11:32;25.80;66.80
25438;DHT22;13364;49.084;9.978;2023-06-22T08:14:00;25.90;66.60
25438;DHT22;13364;49.084;9.978;2023-06-22T08:16:28;26.10;66.30
25438;DHT22;13364;49.084;9.978;2023-06-22T08:18:55;26.20;65.50
25438;DHT22;13364;49.084;9.978;2023-06-22T08:21:22;26.40;64.40
25438;DHT22;13364;49.084;9.978;2023-06-22T08:23:49;26.40;63.70
25438;DHT22;13364;49.084;9.978;2023-06-22T08:26:16;26.40;63.70
25438;DHT22;13364;49.084;9.978;2023-06-22T08:28:43;26.60;64.20
25438;DHT22;13364;49.084;9.978;2023-06-22T08:31:11;26.70;64.30
25438;DHT22;13364;49.084;9.978;2023-06-22T08:33:39;27.00;64.50
25438;DHT22;13364;49.084;9.978;2023-06-22T08:36:15;27.30;62.30
25438;DHT22;13364;49.084;9.978;2023-06-22T08:38:43;27.50;63.00
25438;DHT22;13364;49.084;9.978;2023-06-22T08:41:11;27.70;62.20
25438;DHT22;13364;49.084;9.978;2023-06-22T08:43:38;28.00;61.40
25438;DHT22;13364;49.084;9.978;2023-06-22T08:46:06;28.20;61.20
25438;DHT22;13364;49.084;9.978;2023-06-22T08:48:33;28.40;60.20
25438;DHT22;13364;49.084;9.978;2023-06-22T08:51:00;28.60;59.50
25438;DHT22;13364;49.084;9.978;2023-06-22T08:53:27;28.80;58.70
25438;DHT22;13364;49.084;9.978;2023-06-22T08:55:54;28.90;57.90
25438;DHT22;13364;49.084;9.978;2023-06-22T08:58:21;29.10;56.30
25438;DHT22;13364;49.084;9.978;2023-06-22T09:00:51;29.10;55.10
25438;DHT22;13364;49.084;9.978;2023-06-22T09:03:18;29.10;55.10
25438;DHT22;13364;49.084;9.978;2023-06-22T09:05:47;29.20;55.60
25438;DHT22;13364;49.084;9.978;2023-06-22T09:08:15;29.30;55.20
25438;DHT22;13364;49.084;9.978;2023-06-22T09:10:42;29.40;55.10
25438;DHT22;13364;49.084;9.978;2023-06-22T09:13:09;29.50;55.60
25438;DHT22;13364;49.084;9.978;2023-06-22T09:15:36;29.60;54.50
25438;DHT22;13364;49.084;9.978;2023-06-22T09:18:03;29.80;54.80
25438;DHT22;13364;49.084;9.978;2023-06-22T09:20:30;30.10;54.60
25438;DHT22;13364;49.084;9.978;2023-06-22T09:22:58;30.30;53.20
25438;DHT22;13364;49.084;9.978;2023-06-22T09:25:26;30.40;51.60
25438;DHT22;13364;49.084;9.978;2023-06-22T09:27:53;30.40;50.40
25438;DHT22;13364;49.084;9.978;2023-06-22T09:30:21;30.40;51.70
25438;DHT22;13364;49.084;9.978;2023-06-22T09:32:48;30.30;51.40
25438;DHT22;13364;49.084;9.978;2023-06-22T09:35:15;30.40;53.20
25438;DHT22;13364;49.084;9.978;2023-06-22T09:37:42;30.60;51.30
25438;DHT22;13364;49.084;9.978;2023-06-22T09:40:10;30.70;52.10
25438;DHT22;13364;49.084;9.978;2023-06-22T09:42:40;30.90;52.40
25438;DHT22;13364;49.084;9.978;2023-06-22T09:45:08;31.20;52.90
25438;DHT22;13364;49.084;9.978;2023-06-22T09:47:36;31.40;49.90
25438;DHT22;13364;49.084;9.978;2023-06-22T09:50:04;31.40;49.30
25438;DHT22;13364;49.084;9.978;2023-06-22T09:52:31;31.50;49.30
25438;DHT22;13364;49.084;9.978;2023-06-22T09:55:01;31.70;49.60
25438;DHT22;13364;49.084;9.978;2023-06-22T09:57:30;31.80;48.00
25438;DHT22;13364;49.084;9.978;2023-06-22T09:59:57;31.70;48.40
25438;DHT22;13364;49.084;9.978;2023-06-22T10:02:25;31.70;49.10
25438;DHT22;13364;49.084;9.978;2023-06-22T10:04:52;31.80;50.50
25438;DHT22;13364;49.084;9.978;2023-06-22T10:07:20;31.90;49.60
25438;DHT22;13364;49.084;9.978;2023-06-22T10:09:47;32.10;49.00
25438;DHT22;13364;49.084;9.978;2023-06-22T10:12:14;32.30;48.30
25438;DHT22;13364;49.084;9.978;2023-06-22T10:14:41;32.60;48.70
25438;DHT22;13364;49.084;9.978;2023-06-22T10:17:08;32.80;47.90
25438;DHT22;13364;49.084;9.978;2023-06-22T10:19:35;32.90;47.50
25438;DHT22;13364;49.084;9.978;2023-06-22T10:22:05;33.10;46.80
25438;DHT22;13364;49.084;9.978;2023-06-22T10:24:32;33.20;46.70
25438;DHT22;13364;49.084;9.978;2023-06-22T10:26:59;33.40;46.60
25438;DHT22;13364;49.084;9.978;2023-06-22T10:29:26;33.60;45.50
25438;DHT22;13364;49.084;9.978;2023-06-22T10:31:53;33.70;44.80
25438;DHT22;13364;49.084;9.978;2023-06-22T10:34:21;33.80;45.70
25438;DHT22;13364;49.084;9.978;2023-06-22T10:36:48;33.90;45.00
25438;DHT22;13364;49.084;9.978;2023-06-22T10:39:15;33.90;44.20
25438;DHT22;13364;49.084;9.978;2023-06-22T10:41:42;33.90;45.70
25438;DHT22;13364;49.084;9.978;2023-06-22T10:44:09;34.00;44.50
25438;DHT22;13364;49.084;9.978;2023-06-22T10:46:38;34.10;44.80
25438;DHT22;13364;49.084;9.978;2023-06-22T10:49:05;34.20;44.20
25438;DHT22;13364;49.084;9.978;2023-06-22T10:51:32;34.40;44.40
25438;DHT22;13364;49.084;9.978;2023-06-22T10:53:59;34.50;45.10
25438;DHT22;13364;49.084;9.978;2023-06-22T10:56:26;34.70;43.20
25438;DHT22;13364;49.084;9.978;2023-06-22T10:58:53;34.80;43.50
25438;DHT22;13364;49.084;9.978;2023-06-22T11:01:20;34.90;42.90
25438;DHT22;13364;49.084;9.978;2023-06-22T11:04:33;35.00;42.00
25438;DHT22;13364;49.084;9.978;2023-06-22T11:07:00;35.10;42.20
25438;DHT22;13364;49.084;9.978;2023-06-22T11:09:28;35.20;42.80
25438;DHT22;13364;49.084;9.978;2023-06-22T11:11:55;35.30;43.10
25438;DHT22;13364;49.084;9.978;2023-06-22T11:14:23;35.40;42.00
25438;DHT22;13364;49.084;9.978;2023-06-22T11:16:50;35.60;41.60
25438;DHT22;13364;49.084;9.978;2023-06-22T11:19:23;35.70;41.30
25438;DHT22;13364;49.084;9.978;2023-06-22T11:21:50;35.70;41.20
25438;DHT22;13364;49.084;9.978;2023-06-22T11:24:17;35.80;41.00
25438;DHT22;13364;49.084;9.978;2023-06-22T11:26:44;35.80;39.90
25438;DHT22;13364;49.084;9.978;2023-06-22T11:29:11;35.90;38.80
25438;DHT22;13364;49.084;9.978;2023-06-22T11:31:58;36.00;39.50
25438;DHT22;13364;49.084;9.978;2023-06-22T11:34:25;36.00;38.90
25438;DHT22;13364;49.084;9.978;2023-06-22T11:36:52;35.90;40.10
25438;DHT22;13364;49.084;9.978;2023-06-22T11:39:19;35.90;39.70
25438;DHT22;13364;49.084;9.978;2023-06-22T11:42:00;35.80;39.00
25438;DHT22;13364;49.084;9.978;2023-06-22T11:44:27;35.80;40.20
25438;DHT22;13364;49.084;9.978;2023-06-22T11:46:54;35.80;40.80
25438;DHT22;13364;49.084;9.978;2023-06-22T11:49:21;35.70;40.40
25438;DHT22;13364;49.084;9.978;2023-06-22T11:51:48;35.80;40.00
25438;DHT22;13364;49.084;9.978;2023-06-22T11:54:15;35.80;38.90
25438;DHT22;13364;49.084;9.978;2023-06-22T11:56:42;35.80;38.90
25438;DHT22;13364;49.084;9.978;2023-06-22T11:59:09;35.70;38.10
25438;DHT22;13364;49.084;9.978;2023-06-22T12:01:37;35.60;40.20
25438;DHT22;13364;49.084;9.978;2023-06-22T12:04:04;35.70;40.20
25438;DHT22;13364;49.084;9.978;2023-06-22T12:06:33;35.70;40.00
25438;DHT22;13364;49.084;9.978;2023-06-22T12:09:02;35.80;39.80
25438;DHT22;13364;49.084;9.978;2023-06-22T12:11:31;35.80;39.10
25438;DHT22;13364;49.084;9.978;2023-06-22T12:13:58;35.80;40.00
25438;DHT22;13364;49.084;9.978;2023-06-22T12:16:29;35.80;38.20
25438;DHT22;13364;49.084;9.978;2023-06-22T12:18:56;35.70;38.40
25438;DHT22;13364;49.084;9.978;2023-06-22T12:21:23;35.50;39.80
25438;DHT22;13364;49.084;9.978;2023-06-22T12:23:50;35.50;39.40
25438;DHT22;13364;49.084;9.978;2023-06-22T12:26:17;35.50;38.80
25438;DHT22;13364;49.084;9.978;2023-06-22T12:28:44;35.50;38.50
25438;DHT22;13364;49.084;9.978;2023-06-22T12:31:11;35.30;38.30
25438;DHT22;13364;49.084;9.978;2023-06-22T12:33:38;35.10;38.10
25438;DHT22;13364;49.084;9.978;2023-06-22T12:36:05;34.90;39.40
25438;DHT22;13364;49.084;9.978;2023-06-22T12:38:33;34.80;39.50
25438;DHT22;13364;49.084;9.978;2023-06-22T12:41:00;34.70;39.20
25438;DHT22;13364;49.084;9.978;2023-06-22T12:43:27;34.60;41.10
25438;DHT22;13364;49.084;9.978;2023-06-22T12:45:54;34.50;40.20
25438;DHT22;13364;49.084;9.978;2023-06-22T12:48:22;34.50;39.60
25438;DHT22;13364;49.084;9.978;2023-06-22T12:50:49;34.40;39.50
25438;DHT22;13364;49.084;9.978;2023-06-22T12:53:16;34.30;40.00
25438;DHT22;13364;49.084;9.978;2023-06-22T12:55:43;34.30;41.50
25438;DHT22;13364;49.084;9.978;2023-06-22T12:58:10;34.20;42.00
25438;DHT22;13364;49.084;9.978;2023-06-22T13:00:38;34.30;42.60
25438;DHT22;13364;49.084;9.978;2023-06-22T13:03:05;34.40;42.90
25438;DHT22;13364;49.084;9.978;2023-06-22T13:05:33;34.50;42.50
25438;DHT22;13364;49.084;9.978;2023-06-22T13:08:01;34.70;44.50
25438;DHT22;13364;49.084;9.978;2023-06-22T13:10:30;34.80;40.70
25438;DHT22;13364;49.084;9.978;2023-06-22T13:12:57;34.80;41.80
25438;DHT22;13364;49.084;9.978;2023-06-22T13:15:30;34.70;40.90
25438;DHT22;13364;49.084;9.978;2023-06-22T13:17:58;34.60;40.00
25438;DHT22;13364;49.084;9.978;2023-06-22T13:20:25;34.50;40.90
25438;DHT22;13364;49.084;9.978;2023-06-22T13:22:52;34.40;41.30
25438;DHT22;13364;49.084;9.978;2023-06-22T13:25:20;34.30;40.50
25438;DHT22;13364;49.084;9.978;2023-06-22T13:27:50;34.20;41.20
25438;DHT22;13364;49.084;9.978;2023-06-22T13:30:17;34.10;43.90
25438;DHT22;13364;49.084;9.978;2023-06-22T13:32:45;34.00;43.20
25438;DHT22;13364;49.084;9.978;2023-06-22T13:35:12;33.90;45.40
25438;DHT22;13364;49.084;9.978;2023-06-22T13:37:40;33.80;44.10
25438;DHT22;13364;49.084;9.978;2023-06-22T13:40:08;33.70;47.40
25438;DHT22;13364;49.084;9.978;2023-06-22T13:42:35;33.50;48.30
25438;DHT22;13364;49.084;9.978;2023-06-22T13:45:03;33.50;48.30
25438;DHT22;13364;49.084;9.978;2023-06-22T13:47:30;33.40;50.00
25438;DHT22;13364;49.084;9.978;2023-06-22T13:49:58;33.30;50.90
25438;DHT22;13364;49.084;9.978;2023-06-22T13:52:26;33.20;50.10
25438;DHT22;13364;49.084;9.978;2023-06-22T13:54:53;33.00;49.00
25438;DHT22;13364;49.084;9.978;2023-06-22T13:57:20;32.90;52.30
25438;DHT22;13364;49.084;9.978;2023-06-22T13:59:47;32.90;52.30
25438;DHT22;13364;49.084;9.978;2023-06-22T14:02:14;33.00;51.20
25438;DHT22;13364;49.084;9.978;2023-06-22T14:04:48;33.00;47.40
25438;DHT22;13364;49.084;9.978;2023-06-22T14:07:21;33.10;47.60
25438;DHT22;13364;49.084;9.978;2023-06-22T14:09:48;33.20;45.80
25438;DHT22;13364;49.084;9.978;2023-06-22T14:12:16;33.30;46.60
25438;DHT22;13364;49.084;9.978;2023-06-22T14:14:45;33.40;48.00
25438;DHT22;13364;49.084;9.978;2023-06-22T14:17:12;33.60;46.50
25438;DHT22;13364;49.084;9.978;2023-06-22T14:19:39;33.60;45.00
25438;DHT22;13364;49.084;9.978;2023-06-22T14:22:06;33.80;46.20
25438;DHT22;13364;49.084;9.978;2023-06-22T14:24:34;34.00;48.60
25438;DHT22;13364;49.084;9.978;2023-06-22T14:27:07;34.30;48.50
25438;DHT22;13364;49.084;9.978;2023-06-22T14:29:35;34.50;43.00
25438;DHT22;13364;49.084;9.978;2023-06-22T14:32:03;34.50;43.10
25438;DHT22;13364;49.084;9.978;2023-06-22T14:34:31;34.40;40.90
25438;DHT22;13364;49.084;9.978;2023-06-22T14:40:16;34.50;42.50
25438;DHT22;13364;49.084;9.978;2023-06-22T14:42:43;34.70;43.00
25438;DHT22;13364;49.084;9.978;2023-06-22T14:45:12;34.90;44.10
25438;DHT22;13364;49.084;9.978;2023-06-22T14:47:39;35.00;42.70
25438;DHT22;13364;49.084;9.978;2023-06-22T14:50:07;35.10;41.90
25438;DHT22;13364;49.084;9.978;2023-06-22T14:52:34;35.20;41.80
25438;DHT22;13364;49.084;9.978;2023-06-22T14:55:01;35.30;40.90
25438;DHT22;13364;49.084;9.978;2023-06-22T14:57:28;35.40;42.00
25438;DHT22;13364;49.084;9.978;2023-06-22T14:59:55;35.30;39.40
25438;DHT22;13364;49.084;9.978;2023-06-22T15:02:22;35.30;42.00
25438;DHT22;13364;49.084;9.978;2023-06-22T15:04:50;35.10;39.20
25438;DHT22;13364;49.084;9.978;2023-06-22T15:07:17;34.90;41.90
25438;DHT22;13364;49.084;9.978;2023-06-22T15:09:45;34.70;39.60
25438;DHT22;13364;49.084;9.978;2023-06-22T15:12:44;34.60;39.00
25438;DHT22;13364;49.084;9.978;2023-06-22T15:15:12;34.60;40.20
25438;DHT22;13364;49.084;9.978;2023-06-22T15:17:39;34.70;39.60
25438;DHT22;13364;49.084;9.978;2023-06-22T15:20:07;34.70;39.70
25438;DHT22;13364;49.084;9.978;2023-06-22T15:22:35;34.80;40.60
25438;DHT22;13364;49.084;9.978;2023-06-22T15:25:03;34.90;40.60
25438;DHT22;13364;49.084;9.978;2023-06-22T15:27:30;35.00;39.90
25438;DHT22;13364;49.084;9.978;2023-06-22T15:29:57;35.20;37.80
25438;DHT22;13364;49.084;9.978;2023-06-22T15:32:25;35.30;37.90
25438;DHT22;13364;49.084;9.978;2023-06-22T15:34:52;35.40;36.70
25438;DHT22;13364;49.084;9.978;2023-06-22T15:37:20;35.30;37.60
25438;DHT22;13364;49.084;9.978;2023-06-22T15:39:47;35.30;38.90
25438;DHT22;13364;49.084;9.978;2023-06-22T15:42:15;35.20;37.90
25438;DHT22;13364;49.084;9.978;2023-06-22T15:44:42;35.10;38.70
25438;DHT22;13364;49.084;9.978;2023-06-22T15:47:09;35.10;38.40